createdAt,value
2018-12-26T00:01:56.310Z,99.90
2018-12-26T00:04:44.348Z,99.90
2018-12-26T00:07:32.381Z,99.90
2018-12-26T00:10:20.525Z,99.90
2018-12-26T00:13:08.558Z,99.90
2018-12-26T00:15:56.634Z,99.90
2018-12-26T00:18:25.526Z,99.90
2018-12-26T00:21:15.152Z,99.90
2018-12-26T00:24:03.286Z,99.90
2018-12-26T00:26:51.625Z,99.90
2018-12-26T00:29:39.627Z,99.90
2018-12-26T00:32:27.620Z,99.90
2018-12-26T00:35:15.629Z,99.90
2018-12-26T00:37:44.414Z,99.90
2018-12-26T00:40:32.517Z,99.90
2018-12-26T00:43:01.311Z,99.90
2018-12-26T00:45:49.352Z,99.90
2018-12-26T00:48:37.364Z,99.90
2018-12-26T00:51:25.381Z,99.90
2018-12-26T00:54:13.397Z,99.90
2018-12-26T00:57:01.403Z,99.90
2018-12-26T00:59:50.062Z,99.90
2018-12-26T01:02:38.359Z,99.90
2018-12-26T01:05:26.376Z,99.90
2018-12-26T01:08:14.393Z,99.90
2018-12-26T01:11:02.509Z,99.90
2018-12-26T01:13:50.524Z,99.90
2018-12-26T01:16:38.608Z,99.90
2018-12-26T01:19:26.657Z,99.90
2018-12-26T01:22:14.670Z,99.90
2018-12-26T01:25:02.941Z,99.90
2018-12-26T01:27:31.715Z,99.90
2018-12-26T01:30:19.733Z,99.90
2018-12-26T01:33:07.800Z,99.90
2018-12-26T01:35:36.672Z,99.90
2018-12-26T01:40:47.868Z,99.90
2018-12-26T01:43:35.865Z,99.90
2018-12-26T01:46:23.885Z,99.90
2018-12-26T01:48:52.753Z,99.90
2018-12-26T01:51:21.541Z,99.90
2018-12-26T01:53:50.391Z,99.90
2018-12-26T01:56:27.733Z,99.90
2018-12-26T01:58:49.630Z,99.90
2018-12-26T02:01:18.713Z,99.90
2018-12-26T02:03:47.778Z,99.90
2018-12-26T02:06:16.896Z,99.90
2018-12-26T02:08:45.680Z,99.90
2018-12-26T02:11:14.797Z,99.90
2018-12-26T02:13:43.598Z,99.90
2018-12-26T02:16:12.376Z,99.90
2018-12-26T02:18:41.405Z,99.90
2018-12-26T02:21:29.433Z,99.90
2018-12-26T02:24:17.449Z,99.90
2018-12-26T02:27:05.467Z,99.90
2018-12-26T02:29:34.307Z,99.90
2018-12-26T02:32:22.317Z,99.90
2018-12-26T02:35:10.338Z,99.90
2018-12-26T02:37:51.505Z,99.90
2018-12-26T02:40:32.385Z,99.90
2018-12-26T02:43:13.090Z,99.90
2018-12-26T02:45:53.863Z,99.90
2018-12-26T02:48:34.454Z,99.90
2018-12-26T02:51:15.816Z,99.90
2018-12-26T02:53:56.925Z,99.90
2018-12-26T02:56:46.201Z,99.90
2018-12-26T02:59:20.222Z,99.90
2018-12-26T03:02:03.772Z,99.90
2018-12-26T03:04:44.620Z,99.90
2018-12-26T03:07:25.221Z,99.90
2018-12-26T03:10:05.938Z,99.90
2018-12-26T03:12:46.511Z,99.90
2018-12-26T03:15:27.317Z,99.90
2018-12-26T03:18:07.989Z,99.90
2018-12-26T03:20:48.761Z,99.90
2018-12-26T03:23:29.472Z,99.90
2018-12-26T03:25:58.339Z,99.90
2018-12-26T03:28:27.401Z,99.90
2018-12-26T03:30:56.182Z,99.90
2018-12-26T03:33:44.273Z,99.90
2018-12-26T03:36:24.615Z,99.90
2018-12-26T03:39:05.317Z,99.90
2018-12-26T03:41:46.066Z,99.90
2018-12-26T03:44:26.460Z,99.90
2018-12-26T03:47:07.189Z,99.90
2018-12-26T03:49:47.942Z,99.90
2018-12-26T03:52:29.090Z,99.90
2018-12-26T03:55:09.738Z,99.90
2018-12-26T03:57:50.282Z,99.90
2018-12-26T04:00:30.761Z,99.90
2018-12-26T04:03:11.750Z,99.90
2018-12-26T04:05:53.241Z,99.90
2018-12-26T04:08:34.441Z,99.90
2018-12-26T04:11:15.297Z,99.90
2018-12-26T04:13:56.101Z,99.90
2018-12-26T04:16:37.441Z,99.90
2018-12-26T04:19:17.800Z,99.90
2018-12-26T04:21:58.787Z,99.90
2018-12-26T04:24:39.237Z,99.90
2018-12-26T04:27:19.722Z,99.90
2018-12-26T04:30:00.760Z,99.90
2018-12-26T04:32:41.326Z,99.90
2018-12-26T04:35:22.484Z,99.90
2018-12-26T04:38:03.084Z,99.90
2018-12-26T04:40:44.218Z,99.90
2018-12-26T04:43:24.656Z,99.90
2018-12-26T04:46:05.627Z,99.90
2018-12-26T04:48:46.910Z,99.90
2018-12-26T04:51:27.897Z,99.90
2018-12-26T04:54:08.548Z,99.90
2018-12-26T04:56:49.944Z,99.90
2018-12-26T04:59:31.050Z,99.90
2018-12-26T05:02:12.523Z,99.90
2018-12-26T05:04:53.778Z,99.90
2018-12-26T05:07:34.665Z,99.90
2018-12-26T05:10:15.245Z,99.90
2018-12-26T05:12:55.824Z,99.90
2018-12-26T05:15:36.640Z,99.90
2018-12-26T05:18:05.589Z,99.90
2018-12-26T05:20:53.589Z,99.90
2018-12-26T05:23:41.615Z,99.90
2018-12-26T05:26:29.728Z,99.90
2018-12-26T05:29:17.749Z,99.90
2018-12-26T05:32:06.109Z,99.90
2018-12-26T05:34:54.166Z,99.90
2018-12-26T05:37:35.381Z,99.90
2018-12-26T05:40:16.194Z,99.90
2018-12-26T05:42:56.865Z,99.90
2018-12-26T05:45:37.561Z,99.90
2018-12-26T05:48:18.149Z,99.90
2018-12-26T05:50:59.138Z,99.90
2018-12-26T05:53:39.875Z,99.90
2018-12-26T05:56:20.839Z,99.90
2018-12-26T05:59:01.177Z,99.90
2018-12-26T06:01:41.801Z,99.90
2018-12-26T06:04:22.789Z,99.90
2018-12-26T06:06:51.617Z,99.90
2018-12-26T06:09:20.397Z,99.90
2018-12-26T06:11:49.291Z,99.90
2018-12-26T06:14:37.304Z,99.90
2018-12-26T06:17:25.331Z,99.90
2018-12-26T06:20:13.614Z,99.90
2018-12-26T06:23:01.632Z,99.90
2018-12-26T06:25:50.002Z,99.90
2018-12-26T06:28:38.343Z,99.90
2018-12-26T06:31:26.433Z,99.90
2018-12-26T06:34:14.454Z,99.90
2018-12-26T06:36:55.114Z,99.90
2018-12-26T06:39:35.769Z,99.90
2018-12-26T06:42:16.193Z,99.90
2018-12-26T06:44:56.946Z,99.90
2018-12-26T06:47:37.875Z,99.90
2018-12-26T06:50:18.874Z,99.90
2018-12-26T06:52:59.374Z,99.90
2018-12-26T06:55:41.678Z,99.90
2018-12-26T06:58:22.265Z,99.90
2018-12-26T07:01:03.106Z,99.90
2018-12-26T07:03:43.721Z,99.90
2018-12-26T07:06:24.721Z,99.90
2018-12-26T07:09:05.257Z,99.90
2018-12-26T07:11:45.965Z,99.90
2018-12-26T07:14:26.840Z,99.90
2018-12-26T07:17:07.341Z,99.90
2018-12-26T07:19:36.153Z,99.90
2018-12-26T07:22:24.417Z,99.90
2018-12-26T07:25:12.429Z,99.90
2018-12-26T07:28:08.796Z,99.90
2018-12-26T07:30:50.207Z,99.90
2018-12-26T07:33:38.232Z,99.90
2018-12-26T07:36:19.265Z,99.90
2018-12-26T07:39:00.284Z,99.90
2018-12-26T07:41:40.905Z,99.90
2018-12-26T07:44:21.746Z,99.90
2018-12-26T07:47:02.766Z,99.90
2018-12-26T07:49:43.722Z,99.90
2018-12-26T07:52:24.393Z,99.90
2018-12-26T07:55:05.354Z,99.90
2018-12-26T07:57:45.741Z,99.90
2018-12-26T08:00:26.705Z,99.90
2018-12-26T08:03:07.492Z,99.90
2018-12-26T08:05:48.458Z,99.90
2018-12-26T08:08:29.288Z,99.90
2018-12-26T08:11:10.446Z,99.90
2018-12-26T08:13:51.249Z,99.90
2018-12-26T08:16:32.009Z,99.90
2018-12-26T08:19:12.655Z,99.90
2018-12-26T08:21:53.245Z,99.90
2018-12-26T08:24:33.943Z,99.90
2018-12-26T08:27:14.545Z,99.90
2018-12-26T08:29:55.466Z,99.90
2018-12-26T08:32:36.145Z,99.90
2018-12-26T08:35:16.803Z,99.90
2018-12-26T08:37:57.983Z,99.90
2018-12-26T08:40:39.259Z,99.90
2018-12-26T08:43:20.045Z,99.90
2018-12-26T08:46:01.086Z,99.90
2018-12-26T08:48:41.447Z,99.90
2018-12-26T08:51:22.145Z,99.90
2018-12-26T08:54:03.023Z,99.90
2018-12-26T08:56:43.987Z,99.90
2018-12-26T08:59:24.631Z,99.90
2018-12-26T09:02:05.802Z,99.90
2018-12-26T09:04:46.507Z,99.90
2018-12-26T09:07:28.045Z,99.90
2018-12-26T09:10:08.668Z,99.90
2018-12-26T09:12:50.304Z,99.90
2018-12-26T09:15:31.457Z,99.90
2018-12-26T09:18:12.163Z,99.90
2018-12-26T09:20:52.935Z,99.90
2018-12-26T09:23:33.707Z,99.90
2018-12-26T09:28:56.617Z,99.90
2018-12-26T09:31:37.612Z,99.90
2018-12-26T09:34:18.390Z,99.90
2018-12-26T09:36:59.146Z,99.90
2018-12-26T09:39:39.636Z,99.90
2018-12-26T09:42:20.252Z,99.90
2018-12-26T09:45:01.030Z,99.90
2018-12-26T09:47:41.951Z,99.90
2018-12-26T09:50:22.566Z,99.90
2018-12-26T09:53:03.072Z,99.90
2018-12-26T09:55:44.020Z,99.90
2018-12-26T09:58:25.057Z,99.90
2018-12-26T10:01:06.345Z,99.90
2018-12-26T10:03:47.026Z,99.90
2018-12-26T10:09:09.801Z,99.90
2018-12-26T10:11:51.088Z,99.90
2018-12-26T10:14:32.259Z,99.90
2018-12-26T10:17:13.508Z,99.90
2018-12-26T10:19:54.324Z,99.90
2018-12-26T10:22:35.513Z,99.90
2018-12-26T10:25:16.970Z,99.90
2018-12-26T10:27:58.452Z,99.90
2018-12-26T10:30:39.647Z,99.90
2018-12-26T10:33:20.712Z,99.90
2018-12-26T10:36:01.029Z,99.90
2018-12-26T10:38:41.780Z,99.90
2018-12-26T10:41:22.673Z,99.90
2018-12-26T10:44:03.458Z,99.90
2018-12-26T10:46:44.501Z,99.90
2018-12-26T10:49:25.027Z,99.90
2018-12-26T10:52:05.438Z,99.90
2018-12-26T10:54:46.953Z,99.90
2018-12-26T10:57:27.366Z,99.90
2018-12-26T11:00:07.808Z,99.90
2018-12-26T11:02:48.254Z,99.90
2018-12-26T11:05:29.673Z,99.90
2018-12-26T11:08:10.441Z,99.90
2018-12-26T11:10:51.589Z,99.90
2018-12-26T11:13:32.101Z,98.60
2018-12-26T11:16:13.157Z,93.40
2018-12-26T11:18:53.875Z,86.10
2018-12-26T11:21:34.372Z,86.80
2018-12-26T11:24:15.065Z,90.10
2018-12-26T11:26:56.626Z,91.80
2018-12-26T11:29:37.885Z,93.20
2018-12-26T11:32:18.876Z,95.30
2018-12-26T11:34:59.395Z,96.90
2018-12-26T11:37:40.362Z,97.40
2018-12-26T11:40:21.683Z,95.80
2018-12-26T11:43:02.856Z,94.80
2018-12-26T11:45:43.397Z,96.20
2018-12-26T11:48:24.329Z,97.20
2018-12-26T11:51:04.758Z,97.70
2018-12-26T11:53:45.493Z,98.00
2018-12-26T11:56:26.186Z,96.30
2018-12-26T11:59:07.256Z,90.60
2018-12-26T12:01:48.447Z,76.40
2018-12-26T12:04:29.418Z,65.90
2018-12-26T12:07:09.989Z,61.00
2018-12-26T12:09:51.047Z,58.10
2018-12-26T12:12:30.325Z,55.60
2018-12-26T12:15:18.384Z,52.80
2018-12-26T12:18:06.493Z,50.00
2018-12-26T12:20:54.528Z,48.20
2018-12-26T12:23:42.864Z,46.90
2018-12-26T12:26:31.134Z,45.80
2018-12-26T12:29:19.265Z,44.90
2018-12-26T12:32:07.332Z,45.80
2018-12-26T12:34:55.478Z,46.60
2018-12-26T12:37:36.173Z,47.60
2018-12-26T12:40:17.351Z,46.10
2018-12-26T12:42:58.264Z,44.80
2018-12-26T12:45:38.811Z,44.50
2018-12-26T12:48:19.689Z,43.00
2018-12-26T12:51:01.051Z,43.80
2018-12-26T12:53:41.570Z,43.50
2018-12-26T12:56:22.176Z,44.40
2018-12-26T13:01:57.461Z,42.50
2018-12-26T13:04:25.322Z,42.20
2018-12-26T13:07:13.734Z,41.70
2018-12-26T13:10:01.946Z,42.40
2018-12-26T13:12:50.282Z,42.90
2018-12-26T13:15:38.321Z,42.30
2018-12-26T13:18:26.337Z,41.90
2018-12-26T13:21:14.700Z,41.50
2018-12-26T13:24:02.730Z,41.30
2018-12-26T13:26:50.788Z,40.90
2018-12-26T13:29:38.817Z,41.90
2018-12-26T13:32:26.832Z,41.60
2018-12-26T13:35:15.128Z,40.80
2018-12-26T13:37:56.242Z,41.10
2018-12-26T13:40:37.210Z,40.40
2018-12-26T13:43:18.081Z,40.40
2018-12-26T13:45:59.629Z,40.50
2018-12-26T13:48:40.105Z,40.40
2018-12-26T13:51:21.142Z,40.40
2018-12-26T13:54:01.433Z,40.20
2018-12-26T13:56:42.152Z,41.40
2018-12-26T13:59:22.817Z,40.90
2018-12-26T14:02:03.634Z,40.50
2018-12-26T14:04:44.364Z,40.60
2018-12-26T14:07:24.918Z,40.50
2018-12-26T14:10:05.798Z,40.90
2018-12-26T14:12:46.753Z,43.70
2018-12-26T14:15:27.611Z,46.80
2018-12-26T14:18:08.758Z,50.80
2018-12-26T14:20:37.753Z,54.50
2018-12-26T14:23:25.784Z,58.40
2018-12-26T14:26:14.196Z,62.00
2018-12-26T14:29:02.205Z,65.10
2018-12-26T14:31:50.597Z,67.60
2018-12-26T14:34:38.608Z,70.00
2018-12-26T14:37:19.853Z,72.70
2018-12-26T14:40:00.415Z,75.30
2018-12-26T14:42:41.362Z,76.10
2018-12-26T14:45:21.862Z,77.30
2018-12-26T14:48:02.537Z,78.70
2018-12-26T14:50:43.687Z,80.10
2018-12-26T14:53:12.619Z,81.90
2018-12-26T14:56:00.953Z,83.80
2018-12-26T14:58:48.993Z,84.10
2018-12-26T15:01:37.685Z,85.70
2018-12-26T15:04:25.696Z,88.80
2018-12-26T15:07:13.740Z,91.60
2018-12-26T15:10:01.852Z,94.10
2018-12-26T15:12:49.885Z,95.60
2018-12-26T15:15:37.938Z,96.70
2018-12-26T15:18:06.738Z,97.50
2018-12-26T15:20:54.770Z,98.20
2018-12-26T15:23:43.270Z,98.50
2018-12-26T15:26:12.175Z,98.70
2018-12-26T15:29:00.173Z,99.10
2018-12-26T15:31:48.283Z,99.80
2018-12-26T15:34:36.360Z,99.90
2018-12-26T15:37:16.977Z,99.90
2018-12-26T15:39:58.097Z,99.90
2018-12-26T15:42:38.638Z,99.90
2018-12-26T15:45:19.322Z,99.90
2018-12-26T15:47:59.716Z,99.90
2018-12-26T15:50:40.437Z,99.90
2018-12-26T15:53:21.100Z,99.90
2018-12-26T15:56:02.090Z,99.90
2018-12-26T15:58:43.061Z,99.90
2018-12-26T16:01:24.156Z,99.90
2018-12-26T16:04:04.974Z,99.90
2018-12-26T16:06:45.837Z,99.90
2018-12-26T16:09:26.429Z,99.90
2018-12-26T16:12:07.314Z,99.90
2018-12-26T16:14:48.077Z,99.90
2018-12-26T16:17:29.149Z,99.90
2018-12-26T16:20:10.029Z,99.90
2018-12-26T16:22:51.200Z,99.90
2018-12-26T16:25:31.906Z,99.90
2018-12-26T16:28:13.083Z,99.90
2018-12-26T16:30:54.156Z,99.90
2018-12-26T16:33:34.702Z,99.90
2018-12-26T16:36:15.669Z,99.90
2018-12-26T16:38:56.733Z,99.90
2018-12-26T16:41:37.104Z,99.90
2018-12-26T16:44:18.322Z,99.90
2018-12-26T16:46:47.421Z,99.90
2018-12-26T16:49:35.712Z,99.90
2018-12-26T16:52:23.768Z,99.90
2018-12-26T16:55:12.119Z,99.90
2018-12-26T16:58:00.240Z,99.90
2018-12-26T17:00:54.967Z,99.90
2018-12-26T17:03:38.104Z,99.90
2018-12-26T17:06:26.137Z,99.90
2018-12-26T17:09:14.554Z,99.90
2018-12-26T17:12:02.593Z,99.90
2018-12-26T17:14:50.977Z,99.90
2018-12-26T17:17:39.255Z,99.90
2018-12-26T17:20:27.453Z,99.90
2018-12-26T17:23:15.702Z,99.90
2018-12-26T17:26:03.808Z,99.90
2018-12-26T17:28:51.912Z,99.90
2018-12-26T17:31:40.224Z,99.90
2018-12-26T17:34:09.309Z,99.90
2018-12-26T17:36:57.349Z,99.90
2018-12-26T17:39:45.454Z,99.90
2018-12-26T17:42:33.849Z,99.90
2018-12-26T17:45:22.675Z,99.90
2018-12-26T17:48:10.849Z,99.90
2018-12-26T17:51:00.684Z,99.90
2018-12-26T17:54:07.975Z,99.90
2018-12-26T17:57:00.909Z,99.90
2018-12-26T17:59:56.376Z,99.90
2018-12-26T18:02:45.685Z,99.90
2018-12-26T18:05:33.728Z,99.90
2018-12-26T18:08:21.777Z,99.90
2018-12-26T18:11:09.856Z,99.90
2018-12-26T18:13:57.874Z,99.90
2018-12-26T18:16:26.811Z,99.90
2018-12-26T18:19:15.219Z,99.90
2018-12-26T18:22:03.230Z,99.90
2018-12-26T18:24:51.277Z,99.90
2018-12-26T18:27:39.297Z,99.90
2018-12-26T18:30:27.737Z,99.90
2018-12-26T18:33:16.028Z,99.90
2018-12-26T18:36:04.059Z,99.90
2018-12-26T18:38:32.861Z,99.90
2018-12-26T18:41:01.625Z,99.90
2018-12-26T18:43:30.727Z,99.90
2018-12-26T18:46:18.750Z,99.90
2018-12-26T18:49:07.031Z,99.90
2018-12-26T18:51:55.111Z,99.90
2018-12-26T18:54:24.291Z,99.90
2018-12-26T18:56:53.114Z,99.90
2018-12-26T18:59:22.010Z,99.90
2018-12-26T19:02:10.013Z,99.90
2018-12-26T19:04:58.133Z,99.90
2018-12-26T19:07:53.438Z,99.90
2018-12-26T19:10:41.470Z,99.90
2018-12-26T19:13:29.485Z,99.90
2018-12-26T19:16:18.132Z,99.90
2018-12-26T19:19:06.212Z,99.90
2018-12-26T19:21:54.328Z,99.90
2018-12-26T19:24:42.769Z,99.90
2018-12-26T19:27:31.114Z,99.90
2018-12-26T19:30:19.213Z,99.90
2018-12-26T19:32:47.988Z,99.90
2018-12-26T19:35:17.160Z,99.90
2018-12-26T19:37:57.849Z,99.90
2018-12-26T19:40:38.790Z,99.90
2018-12-26T19:43:08.364Z,99.90
2018-12-26T19:45:56.378Z,99.90
2018-12-26T19:48:25.167Z,99.90
2018-12-26T19:50:54.080Z,99.90
2018-12-26T19:53:42.105Z,99.90
2018-12-26T19:56:30.161Z,99.90
2018-12-26T20:02:12.293Z,99.90
2018-12-26T20:05:00.585Z,99.90
2018-12-26T20:07:48.640Z,99.90
2018-12-26T20:10:36.688Z,99.90
2018-12-26T20:13:24.782Z,99.90
2018-12-26T20:16:12.810Z,99.90
2018-12-26T20:19:00.821Z,99.90
2018-12-26T20:21:48.838Z,99.90
2018-12-26T20:24:36.856Z,99.90
2018-12-26T20:27:25.105Z,99.90
2018-12-26T20:30:13.264Z,99.90
2018-12-26T20:33:01.540Z,99.90
2018-12-26T20:35:49.646Z,99.90
2018-12-26T20:38:31.029Z,99.90
2018-12-26T20:41:00.256Z,99.90
2018-12-26T20:43:48.268Z,99.90
2018-12-26T20:46:36.658Z,99.90
2018-12-26T20:49:24.672Z,99.90
2018-12-26T20:52:13.297Z,99.90
2018-12-26T20:55:01.679Z,99.90
2018-12-26T20:57:49.657Z,99.90
2018-12-26T21:00:37.697Z,99.90
2018-12-26T21:03:25.992Z,99.90
2018-12-26T21:06:14.362Z,99.90
2018-12-26T21:12:09.769Z,99.90
2018-12-26T21:14:57.796Z,99.90
2018-12-26T21:17:45.842Z,99.90
2018-12-26T21:20:33.880Z,99.90
2018-12-26T21:23:21.892Z,99.90
2018-12-26T21:26:10.270Z,99.90
2018-12-26T21:28:58.617Z,99.90
2018-12-26T21:31:46.652Z,99.90
2018-12-26T21:34:34.696Z,99.90
2018-12-26T21:37:15.385Z,99.90
2018-12-26T21:39:56.198Z,99.90
2018-12-26T21:42:37.221Z,99.90
2018-12-26T21:45:07.528Z,99.90
2018-12-26T21:47:55.913Z,99.90
2018-12-26T21:50:44.925Z,99.90
2018-12-26T21:53:33.982Z,99.90
2018-12-26T21:56:22.014Z,99.90
2018-12-26T21:59:10.085Z,99.90
2018-12-26T22:01:58.098Z,99.90
2018-12-26T22:04:46.125Z,99.90
2018-12-26T22:07:34.168Z,99.90
2018-12-26T22:10:22.195Z,99.90
2018-12-26T22:13:10.440Z,99.90
2018-12-26T22:15:58.529Z,99.90
2018-12-26T22:18:46.571Z,99.90
2018-12-26T22:21:34.596Z,99.90
2018-12-26T22:24:23.007Z,99.90
2018-12-26T22:27:11.445Z,99.90
2018-12-26T22:29:59.446Z,99.90
2018-12-26T22:32:47.656Z,99.90
2018-12-26T22:35:35.691Z,99.90
2018-12-26T22:38:16.606Z,99.90
2018-12-26T22:40:45.427Z,99.90
2018-12-26T22:43:33.432Z,99.90
2018-12-26T22:46:21.437Z,99.90
2018-12-26T22:49:09.605Z,99.90
2018-12-26T22:51:42.058Z,99.90
2018-12-26T22:54:09.209Z,99.90
2018-12-26T22:56:37.997Z,99.90
2018-12-26T22:59:26.105Z,99.90
2018-12-26T23:02:14.222Z,99.90
2018-12-26T23:05:02.248Z,99.90
2018-12-26T23:07:50.623Z,99.90
2018-12-26T23:10:38.983Z,99.90
2018-12-26T23:13:27.278Z,99.90
2018-12-26T23:15:56.638Z,99.90
2018-12-26T23:18:25.471Z,99.90
2018-12-26T23:20:54.324Z,99.90
2018-12-26T23:23:23.213Z,99.90
2018-12-26T23:25:51.995Z,99.90
2018-12-26T23:28:20.811Z,99.90
2018-12-26T23:30:49.592Z,99.90
2018-12-26T23:33:18.513Z,99.90
2018-12-26T23:35:47.612Z,99.90
2018-12-26T23:38:18.008Z,99.90
2018-12-26T23:40:47.114Z,99.90
2018-12-26T23:43:16.184Z,99.90
2018-12-26T23:45:45.496Z,99.90
2018-12-26T23:48:33.627Z,99.90
2018-12-26T23:51:02.511Z,99.90
2018-12-26T23:53:50.500Z,99.90
2018-12-26T23:56:38.543Z,99.90
2018-12-26T23:59:27.049Z,99.90
